Reardan, Washington
Current Conditions -  °F | °C
As of 6:58 PM on Monday 20 Oct 2014 (Local Time) from KSKA Reporting Station
Overcast Overcast  
Wind Chill: 60°   Ceiling: 11000
Heat Index: 60°   Visibility: 10mi
Dew Point: 48°   Wind: 15mph
Humidity: 67%   Direction: 250°WSW
Pressure: 29.75"   Gusts: NA
Location:  47.67°N, 117.88°W
Report Text: KSKA 210158Z AUTO 25013KT 10SM OVC110 15/09 A2975 RMK AO2 SLP077 T01530091
Loading
Personal Weather Stations






























Interactive Weather Map
Tropical Storm Tracking
New forecast layout! Learn more

10-Day Weather Forecast

Advertisements
Track Severe Weather on mobile